sensor_id;sensor_type;location;lat;lon;timestamp;temperature;humidity
2929;DHT22;1474;51.460;7.150;2023-05-07T00:02:01;16.20;74.00
2929;DHT22;1474;51.460;7.150;2023-05-07T00:04:29;16.30;74.10
2929;DHT22;1474;51.460;7.150;2023-05-07T00:07:01;16.30;74.40
2929;DHT22;1474;51.460;7.150;2023-05-07T00:09:27;16.30;74.40
2929;DHT22;1474;51.460;7.150;2023-05-07T00:11:52;16.30;74.50
2929;DHT22;1474;51.460;7.150;2023-05-07T00:14:18;16.20;74.40
2929;DHT22;1474;51.460;7.150;2023-05-07T00:16:44;16.20;74.70
2929;DHT22;1474;51.460;7.150;2023-05-07T00:19:10;16.20;74.90
2929;DHT22;1474;51.460;7.150;2023-05-07T00:21:35;16.30;74.50
2929;DHT22;1474;51.460;7.150;2023-05-07T00:24:01;16.20;74.50
2929;DHT22;1474;51.460;7.150;2023-05-07T00:26:27;16.30;74.50
2929;DHT22;1474;51.460;7.150;2023-05-07T00:28:53;16.20;74.20
2929;DHT22;1474;51.460;7.150;2023-05-07T00:31:18;16.20;74.30
2929;DHT22;1474;51.460;7.150;2023-05-07T00:33:44;16.20;74.20
2929;DHT22;1474;51.460;7.150;2023-05-07T00:36:10;16.20;74.40
2929;DHT22;1474;51.460;7.150;2023-05-07T00:38:36;16.20;74.90
2929;DHT22;1474;51.460;7.150;2023-05-07T00:41:01;16.10;75.30
2929;DHT22;1474;51.460;7.150;2023-05-07T00:43:27;16.10;75.60
2929;DHT22;1474;51.460;7.150;2023-05-07T00:45:54;16.00;75.70
2929;DHT22;1474;51.460;7.150;2023-05-07T00:48:20;16.00;74.90
2929;DHT22;1474;51.460;7.150;2023-05-07T00:50:46;16.00;74.80
2929;DHT22;1474;51.460;7.150;2023-05-07T00:53:13;16.00;75.40
2929;DHT22;1474;51.460;7.150;2023-05-07T00:55:39;16.00;75.80
2929;DHT22;1474;51.460;7.150;2023-05-07T00:58:06;16.00;75.90
2929;DHT22;1474;51.460;7.150;2023-05-07T01:00:32;16.00;76.00
2929;DHT22;1474;51.460;7.150;2023-05-07T01:02:58;15.90;75.80
2929;DHT22;1474;51.460;7.150;2023-05-07T01:05:25;15.90;75.70
2929;DHT22;1474;51.460;7.150;2023-05-07T01:07:53;15.90;75.40
2929;DHT22;1474;51.460;7.150;2023-05-07T01:10:21;15.90;76.00
2929;DHT22;1474;51.460;7.150;2023-05-07T01:12:48;15.90;75.80
2929;DHT22;1474;51.460;7.150;2023-05-07T01:15:15;15.90;76.30
2929;DHT22;1474;51.460;7.150;2023-05-07T01:17:43;15.90;75.90
2929;DHT22;1474;51.460;7.150;2023-05-07T01:20:10;15.80;76.30
2929;DHT22;1474;51.460;7.150;2023-05-07T01:22:39;15.80;76.00
2929;DHT22;1474;51.460;7.150;2023-05-07T01:25:06;15.80;76.00
2929;DHT22;1474;51.460;7.150;2023-05-07T01:27:33;15.90;75.80
2929;DHT22;1474;51.460;7.150;2023-05-07T01:30:01;15.90;76.00
2929;DHT22;1474;51.460;7.150;2023-05-07T01:32:51;15.90;76.30
2929;DHT22;1474;51.460;7.150;2023-05-07T01:35:26;15.80;76.90
2929;DHT22;1474;51.460;7.150;2023-05-07T01:37:55;15.80;77.20
2929;DHT22;1474;51.460;7.150;2023-05-07T01:40:22;15.80;77.30
2929;DHT22;1474;51.460;7.150;2023-05-07T01:42:50;15.80;77.40
2929;DHT22;1474;51.460;7.150;2023-05-07T01:45:16;15.80;77.60
2929;DHT22;1474;51.460;7.150;2023-05-07T01:47:42;15.70;78.10
2929;DHT22;1474;51.460;7.150;2023-05-07T01:50:09;15.50;78.50
2929;DHT22;1474;51.460;7.150;2023-05-07T01:52:37;15.50;78.80
2929;DHT22;1474;51.460;7.150;2023-05-07T01:55:04;15.50;79.20
2929;DHT22;1474;51.460;7.150;2023-05-07T01:57:31;15.40;79.50
2929;DHT22;1474;51.460;7.150;2023-05-07T01:59:57;15.40;79.70
2929;DHT22;1474;51.460;7.150;2023-05-07T02:02:22;15.40;79.60
2929;DHT22;1474;51.460;7.150;2023-05-07T02:04:48;15.40;79.50
2929;DHT22;1474;51.460;7.150;2023-05-07T02:07:14;15.40;79.40
2929;DHT22;1474;51.460;7.150;2023-05-07T02:09:40;15.40;79.40
2929;DHT22;1474;51.460;7.150;2023-05-07T02:12:05;15.40;79.50
2929;DHT22;1474;51.460;7.150;2023-05-07T02:14:31;15.40;79.40
2929;DHT22;1474;51.460;7.150;2023-05-07T02:16:57;15.40;79.20
2929;DHT22;1474;51.460;7.150;2023-05-07T02:19:23;15.50;79.20
2929;DHT22;1474;51.460;7.150;2023-05-07T02:21:48;15.50;79.30
2929;DHT22;1474;51.460;7.150;2023-05-07T02:24:15;15.40;79.40
2929;DHT22;1474;51.460;7.150;2023-05-07T02:26:41;15.40;79.40
2929;DHT22;1474;51.460;7.150;2023-05-07T02:29:06;15.40;79.30
2929;DHT22;1474;51.460;7.150;2023-05-07T02:31:32;15.40;79.60
2929;DHT22;1474;51.460;7.150;2023-05-07T02:33:59;15.40;79.60
2929;DHT22;1474;51.460;7.150;2023-05-07T02:36:25;15.40;79.70
2929;DHT22;1474;51.460;7.150;2023-05-07T02:38:52;15.40;79.90
2929;DHT22;1474;51.460;7.150;2023-05-07T02:41:18;15.30;80.00
2929;DHT22;1474;51.460;7.150;2023-05-07T02:43:43;15.30;80.00
2929;DHT22;1474;51.460;7.150;2023-05-07T02:46:09;15.30;80.00
2929;DHT22;1474;51.460;7.150;2023-05-07T02:48:35;15.30;79.20
2929;DHT22;1474;51.460;7.150;2023-05-07T02:51:02;15.30;79.50
2929;DHT22;1474;51.460;7.150;2023-05-07T02:53:28;15.40;79.70
2929;DHT22;1474;51.460;7.150;2023-05-07T02:55:59;15.30;79.80
2929;DHT22;1474;51.460;7.150;2023-05-07T02:58:25;15.30;79.40
2929;DHT22;1474;51.460;7.150;2023-05-07T03:00:52;15.30;79.60
2929;DHT22;1474;51.460;7.150;2023-05-07T03:03:20;15.30;79.60
2929;DHT22;1474;51.460;7.150;2023-05-07T03:05:46;15.30;79.60
2929;DHT22;1474;51.460;7.150;2023-05-07T03:08:12;15.30;79.30
2929;DHT22;1474;51.460;7.150;2023-05-07T03:10:38;15.30;78.30
2929;DHT22;1474;51.460;7.150;2023-05-07T03:13:04;15.30;77.60
2929;DHT22;1474;51.460;7.150;2023-05-07T03:15:30;15.30;78.00
2929;DHT22;1474;51.460;7.150;2023-05-07T03:17:56;15.30;78.30
2929;DHT22;1474;51.460;7.150;2023-05-07T03:20:22;15.30;77.30
2929;DHT22;1474;51.460;7.150;2023-05-07T03:22:48;15.30;77.40
2929;DHT22;1474;51.460;7.150;2023-05-07T03:25:14;15.30;77.80
2929;DHT22;1474;51.460;7.150;2023-05-07T03:27:40;15.30;78.00
2929;DHT22;1474;51.460;7.150;2023-05-07T03:30:07;15.30;78.40
2929;DHT22;1474;51.460;7.150;2023-05-07T03:32:34;15.30;78.30
2929;DHT22;1474;51.460;7.150;2023-05-07T03:35:01;15.30;78.90
2929;DHT22;1474;51.460;7.150;2023-05-07T03:37:27;15.30;79.30
2929;DHT22;1474;51.460;7.150;2023-05-07T03:39:53;15.30;79.40
2929;DHT22;1474;51.460;7.150;2023-05-07T03:42:19;15.30;78.90
2929;DHT22;1474;51.460;7.150;2023-05-07T03:44:45;15.30;78.70
2929;DHT22;1474;51.460;7.150;2023-05-07T03:47:10;15.30;79.20
2929;DHT22;1474;51.460;7.150;2023-05-07T03:49:36;15.30;78.60
2929;DHT22;1474;51.460;7.150;2023-05-07T03:52:02;15.30;78.30
2929;DHT22;1474;51.460;7.150;2023-05-07T03:54:29;15.30;78.60
2929;DHT22;1474;51.460;7.150;2023-05-07T03:56:55;15.30;78.70
2929;DHT22;1474;51.460;7.150;2023-05-07T03:59:22;15.30;78.30
2929;DHT22;1474;51.460;7.150;2023-05-07T04:01:47;15.20;78.00
2929;DHT22;1474;51.460;7.150;2023-05-07T04:04:14;15.20;79.40
2929;DHT22;1474;51.460;7.150;2023-05-07T04:06:40;15.10;79.70
2929;DHT22;1474;51.460;7.150;2023-05-07T04:09:06;15.10;80.00
2929;DHT22;1474;51.460;7.150;2023-05-07T04:11:33;15.00;80.60
2929;DHT22;1474;51.460;7.150;2023-05-07T04:13:58;15.00;80.60
2929;DHT22;1474;51.460;7.150;2023-05-07T04:16:24;15.00;80.60
2929;DHT22;1474;51.460;7.150;2023-05-07T04:18:50;15.00;80.50
2929;DHT22;1474;51.460;7.150;2023-05-07T04:21:17;14.90;81.30
2929;DHT22;1474;51.460;7.150;2023-05-07T04:23:43;14.80;81.70
2929;DHT22;1474;51.460;7.150;2023-05-07T04:26:09;14.80;82.10
2929;DHT22;1474;51.460;7.150;2023-05-07T04:28:35;14.80;82.20
2929;DHT22;1474;51.460;7.150;2023-05-07T04:31:01;14.80;82.20
2929;DHT22;1474;51.460;7.150;2023-05-07T04:33:27;14.80;82.50
2929;DHT22;1474;51.460;7.150;2023-05-07T04:35:53;14.80;82.60
2929;DHT22;1474;51.460;7.150;2023-05-07T04:38:19;14.80;82.90
2929;DHT22;1474;51.460;7.150;2023-05-07T04:40:45;14.70;83.00
2929;DHT22;1474;51.460;7.150;2023-05-07T04:43:12;14.70;83.40
2929;DHT22;1474;51.460;7.150;2023-05-07T04:45:38;14.70;83.50
2929;DHT22;1474;51.460;7.150;2023-05-07T04:48:06;14.60;83.90
2929;DHT22;1474;51.460;7.150;2023-05-07T04:50:34;14.60;84.20
2929;DHT22;1474;51.460;7.150;2023-05-07T04:52:59;14.60;84.40
2929;DHT22;1474;51.460;7.150;2023-05-07T04:55:25;14.60;84.60
2929;DHT22;1474;51.460;7.150;2023-05-07T04:57:52;14.60;84.60
2929;DHT22;1474;51.460;7.150;2023-05-07T05:00:18;14.60;84.60
2929;DHT22;1474;51.460;7.150;2023-05-07T05:02:45;14.60;84.70
2929;DHT22;1474;51.460;7.150;2023-05-07T05:05:11;14.60;84.80
2929;DHT22;1474;51.460;7.150;2023-05-07T05:07:37;14.70;84.70
2929;DHT22;1474;51.460;7.150;2023-05-07T05:10:04;14.70;84.60
2929;DHT22;1474;51.460;7.150;2023-05-07T05:12:31;14.70;84.40
2929;DHT22;1474;51.460;7.150;2023-05-07T05:14:57;14.80;84.80
2929;DHT22;1474;51.460;7.150;2023-05-07T05:17:23;14.90;84.10
2929;DHT22;1474;51.460;7.150;2023-05-07T05:19:49;14.90;83.80
2929;DHT22;1474;51.460;7.150;2023-05-07T05:22:15;14.80;83.70
2929;DHT22;1474;51.460;7.150;2023-05-07T05:24:40;14.90;83.70
2929;DHT22;1474;51.460;7.150;2023-05-07T05:27:06;14.90;84.40
2929;DHT22;1474;51.460;7.150;2023-05-07T05:29:32;14.80;83.90
2929;DHT22;1474;51.460;7.150;2023-05-07T05:31:58;14.90;84.00
2929;DHT22;1474;51.460;7.150;2023-05-07T05:34:23;14.90;84.00
2929;DHT22;1474;51.460;7.150;2023-05-07T05:36:49;15.00;83.50
2929;DHT22;1474;51.460;7.150;2023-05-07T05:39:15;15.00;83.20
2929;DHT22;1474;51.460;7.150;2023-05-07T05:41:41;15.10;83.30
2929;DHT22;1474;51.460;7.150;2023-05-07T05:44:06;15.20;82.80
2929;DHT22;1474;51.460;7.150;2023-05-07T05:46:32;15.20;82.30
2929;DHT22;1474;51.460;7.150;2023-05-07T05:48:58;15.20;82.30
2929;DHT22;1474;51.460;7.150;2023-05-07T05:51:24;15.30;82.40
2929;DHT22;1474;51.460;7.150;2023-05-07T05:53:49;15.50;82.30
2929;DHT22;1474;51.460;7.150;2023-05-07T05:56:16;15.60;81.90
2929;DHT22;1474;51.460;7.150;2023-05-07T05:58:41;15.80;80.70
2929;DHT22;1474;51.460;7.150;2023-05-07T06:01:07;15.90;80.00
2929;DHT22;1474;51.460;7.150;2023-05-07T06:03:33;16.00;79.50
2929;DHT22;1474;51.460;7.150;2023-05-07T06:05:59;16.10;79.10
2929;DHT22;1474;51.460;7.150;2023-05-07T06:08:31;16.30;78.80
2929;DHT22;1474;51.460;7.150;2023-05-07T06:10:56;16.40;77.80
2929;DHT22;1474;51.460;7.150;2023-05-07T06:13:23;16.50;78.40
2929;DHT22;1474;51.460;7.150;2023-05-07T06:15:49;16.60;78.00
2929;DHT22;1474;51.460;7.150;2023-05-07T06:18:15;16.80;77.10
2929;DHT22;1474;51.460;7.150;2023-05-07T06:20:41;17.00;76.30
2929;DHT22;1474;51.460;7.150;2023-05-07T06:23:07;17.10;75.70
2929;DHT22;1474;51.460;7.150;2023-05-07T06:25:33;17.20;73.90
2929;DHT22;1474;51.460;7.150;2023-05-07T06:27:58;17.30;73.60
2929;DHT22;1474;51.460;7.150;2023-05-07T06:30:24;17.20;73.50
2929;DHT22;1474;51.460;7.150;2023-05-07T06:32:50;17.20;73.30
2929;DHT22;1474;51.460;7.150;2023-05-07T06:35:16;17.10;73.00
2929;DHT22;1474;51.460;7.150;2023-05-07T06:37:42;17.10;74.10
2929;DHT22;1474;51.460;7.150;2023-05-07T06:40:08;17.10;74.10
2929;DHT22;1474;51.460;7.150;2023-05-07T06:42:36;17.00;73.90
2929;DHT22;1474;51.460;7.150;2023-05-07T06:45:02;17.20;75.00
2929;DHT22;1474;51.460;7.150;2023-05-07T06:47:28;17.30;73.90
2929;DHT22;1474;51.460;7.150;2023-05-07T06:49:54;17.30;73.00
2929;DHT22;1474;51.460;7.150;2023-05-07T06:52:20;17.40;72.90
2929;DHT22;1474;51.460;7.150;2023-05-07T06:54:46;17.40;71.70
2929;DHT22;1474;51.460;7.150;2023-05-07T06:57:11;17.40;71.90
2929;DHT22;1474;51.460;7.150;2023-05-07T06:59:37;17.40;71.70
2929;DHT22;1474;51.460;7.150;2023-05-07T07:02:03;17.40;71.80
2929;DHT22;1474;51.460;7.150;2023-05-07T07:04:29;17.40;72.10
2929;DHT22;1474;51.460;7.150;2023-05-07T07:06:55;17.40;71.70
2929;DHT22;1474;51.460;7.150;2023-05-07T07:09:22;17.40;71.70
2929;DHT22;1474;51.460;7.150;2023-05-07T07:11:48;17.40;71.80
2929;DHT22;1474;51.460;7.150;2023-05-07T07:14:13;17.40;72.10
2929;DHT22;1474;51.460;7.150;2023-05-07T07:16:39;17.40;72.60
2929;DHT22;1474;51.460;7.150;2023-05-07T07:19:06;17.40;72.60
2929;DHT22;1474;51.460;7.150;2023-05-07T07:21:31;17.50;72.10
2929;DHT22;1474;51.460;7.150;2023-05-07T07:24:00;17.60;70.60
2929;DHT22;1474;51.460;7.150;2023-05-07T07:26:26;17.50;70.30
2929;DHT22;1474;51.460;7.150;2023-05-07T07:28:52;17.50;70.30
2929;DHT22;1474;51.460;7.150;2023-05-07T07:31:18;17.60;71.00
2929;DHT22;1474;51.460;7.150;2023-05-07T07:33:43;17.60;70.10
2929;DHT22;1474;51.460;7.150;2023-05-07T07:36:09;17.60;69.90
2929;DHT22;1474;51.460;7.150;2023-05-07T07:38:35;17.50;70.20
2929;DHT22;1474;51.460;7.150;2023-05-07T07:41:01;17.50;70.30
2929;DHT22;1474;51.460;7.150;2023-05-07T07:43:27;17.60;71.10
2929;DHT22;1474;51.460;7.150;2023-05-07T07:45:53;17.70;71.30
2929;DHT22;1474;51.460;7.150;2023-05-07T07:48:19;17.80;70.60
2929;DHT22;1474;51.460;7.150;2023-05-07T07:50:45;17.90;70.40
2929;DHT22;1474;51.460;7.150;2023-05-07T07:53:14;17.90;70.70
2929;DHT22;1474;51.460;7.150;2023-05-07T07:55:40;18.00;70.30
2929;DHT22;1474;51.460;7.150;2023-05-07T07:58:06;18.00;70.60
2929;DHT22;1474;51.460;7.150;2023-05-07T08:00:31;18.10;70.90
2929;DHT22;1474;51.460;7.150;2023-05-07T08:02:57;18.20;70.00
2929;DHT22;1474;51.460;7.150;2023-05-07T08:05:23;18.10;69.80
2929;DHT22;1474;51.460;7.150;2023-05-07T08:07:50;18.00;70.60
2929;DHT22;1474;51.460;7.150;2023-05-07T08:10:18;17.90;71.60
2929;DHT22;1474;51.460;7.150;2023-05-07T08:12:51;18.00;72.20
2929;DHT22;1474;51.460;7.150;2023-05-07T08:15:17;18.20;71.60
2929;DHT22;1474;51.460;7.150;2023-05-07T08:17:43;18.30;72.40
2929;DHT22;1474;51.460;7.150;2023-05-07T08:20:09;18.40;71.60
2929;DHT22;1474;51.460;7.150;2023-05-07T08:22:36;18.60;70.80
2929;DHT22;1474;51.460;7.150;2023-05-07T08:25:02;18.70;70.20
2929;DHT22;1474;51.460;7.150;2023-05-07T08:27:29;18.80;70.10
2929;DHT22;1474;51.460;7.150;2023-05-07T08:29:54;18.90;69.80
2929;DHT22;1474;51.460;7.150;2023-05-07T08:32:21;19.00;68.70
2929;DHT22;1474;51.460;7.150;2023-05-07T08:34:47;19.10;68.40
2929;DHT22;1474;51.460;7.150;2023-05-07T08:37:13;19.00;68.70
2929;DHT22;1474;51.460;7.150;2023-05-07T08:39:39;19.10;68.80
2929;DHT22;1474;51.460;7.150;2023-05-07T08:42:05;19.10;68.30
2929;DHT22;1474;51.460;7.150;2023-05-07T08:44:34;19.20;69.60
2929;DHT22;1474;51.460;7.150;2023-05-07T08:47:06;19.30;70.00
2929;DHT22;1474;51.460;7.150;2023-05-07T08:49:33;19.50;67.30
2929;DHT22;1474;51.460;7.150;2023-05-07T08:52:01;19.70;68.80
2929;DHT22;1474;51.460;7.150;2023-05-07T08:54:28;19.90;67.60
2929;DHT22;1474;51.460;7.150;2023-05-07T08:56:54;20.10;67.20
2929;DHT22;1474;51.460;7.150;2023-05-07T08:59:20;20.30;65.60
2929;DHT22;1474;51.460;7.150;2023-05-07T09:01:46;20.30;65.40
2929;DHT22;1474;51.460;7.150;2023-05-07T09:04:12;20.30;66.10
2929;DHT22;1474;51.460;7.150;2023-05-07T09:06:38;20.40;65.50
2929;DHT22;1474;51.460;7.150;2023-05-07T09:09:07;20.40;64.20
2929;DHT22;1474;51.460;7.150;2023-05-07T09:11:33;20.40;64.80
2929;DHT22;1474;51.460;7.150;2023-05-07T09:14:00;20.30;64.70
2929;DHT22;1474;51.460;7.150;2023-05-07T09:16:29;20.30;64.90
2929;DHT22;1474;51.460;7.150;2023-05-07T09:18:58;20.30;64.40
2929;DHT22;1474;51.460;7.150;2023-05-07T09:21:26;20.30;66.20
2929;DHT22;1474;51.460;7.150;2023-05-07T09:23:53;20.50;63.60
2929;DHT22;1474;51.460;7.150;2023-05-07T09:26:25;20.70;63.90
2929;DHT22;1474;51.460;7.150;2023-05-07T09:28:51;20.80;65.30
2929;DHT22;1474;51.460;7.150;2023-05-07T09:31:18;21.00;62.70
2929;DHT22;1474;51.460;7.150;2023-05-07T09:33:44;21.20;61.90
2929;DHT22;1474;51.460;7.150;2023-05-07T09:36:10;21.20;60.80
2929;DHT22;1474;51.460;7.150;2023-05-07T09:38:37;21.20;60.00
2929;DHT22;1474;51.460;7.150;2023-05-07T09:41:09;21.30;62.60
2929;DHT22;1474;51.460;7.150;2023-05-07T09:43:39;21.50;60.40
2929;DHT22;1474;51.460;7.150;2023-05-07T09:46:09;21.80;60.80
2929;DHT22;1474;51.460;7.150;2023-05-07T09:48:39;22.00;61.20
2929;DHT22;1474;51.460;7.150;2023-05-07T09:51:29;22.20;59.10
2929;DHT22;1474;51.460;7.150;2023-05-07T09:53:58;22.10;59.10
2929;DHT22;1474;51.460;7.150;2023-05-07T09:56:29;22.10;59.30
2929;DHT22;1474;51.460;7.150;2023-05-07T09:58:59;22.00;58.60
2929;DHT22;1474;51.460;7.150;2023-05-07T10:01:27;21.90;58.70
2929;DHT22;1474;51.460;7.150;2023-05-07T10:03:53;21.90;58.40
2929;DHT22;1474;51.460;7.150;2023-05-07T10:06:23;21.80;58.50
2929;DHT22;1474;51.460;7.150;2023-05-07T10:08:52;21.80;59.70
2929;DHT22;1474;51.460;7.150;2023-05-07T10:11:19;21.80;58.80
2929;DHT22;1474;51.460;7.150;2023-05-07T10:13:46;21.80;58.20
2929;DHT22;1474;51.460;7.150;2023-05-07T10:16:13;21.80;58.40
2929;DHT22;1474;51.460;7.150;2023-05-07T10:18:40;21.60;58.90
2929;DHT22;1474;51.460;7.150;2023-05-07T10:21:27;21.70;59.60
2929;DHT22;1474;51.460;7.150;2023-05-07T10:24:00;22.00;58.20
2929;DHT22;1474;51.460;7.150;2023-05-07T10:26:32;22.20;57.40
2929;DHT22;1474;51.460;7.150;2023-05-07T10:29:05;22.30;56.90
2929;DHT22;1474;51.460;7.150;2023-05-07T10:34:29;22.30;55.70
2929;DHT22;1474;51.460;7.150;2023-05-07T10:37:00;22.20;57.40
2929;DHT22;1474;51.460;7.150;2023-05-07T10:39:27;22.10;56.30
2929;DHT22;1474;51.460;7.150;2023-05-07T10:41:54;22.00;56.00
2929;DHT22;1474;51.460;7.150;2023-05-07T10:44:29;22.00;58.40
2929;DHT22;1474;51.460;7.150;2023-05-07T10:47:06;22.10;56.50
2929;DHT22;1474;51.460;7.150;2023-05-07T10:49:36;22.20;55.20
2929;DHT22;1474;51.460;7.150;2023-05-07T10:54:44;22.70;54.40
2929;DHT22;1474;51.460;7.150;2023-05-07T11:00:03;23.20;54.60
2929;DHT22;1474;51.460;7.150;2023-05-07T11:05:31;23.30;53.20
2929;DHT22;1474;51.460;7.150;2023-05-07T11:08:02;23.40;55.20
2929;DHT22;1474;51.460;7.150;2023-05-07T11:10:56;23.50;54.80
2929;DHT22;1474;51.460;7.150;2023-05-07T11:13:56;23.50;52.30
2929;DHT22;1474;51.460;7.150;2023-05-07T11:16:23;23.40;54.70
2929;DHT22;1474;51.460;7.150;2023-05-07T11:18:54;23.30;54.40
2929;DHT22;1474;51.460;7.150;2023-05-07T11:21:41;23.40;55.30
2929;DHT22;1474;51.460;7.150;2023-05-07T11:24:10;23.40;54.30
2929;DHT22;1474;51.460;7.150;2023-05-07T11:26:45;23.50;53.70
2929;DHT22;1474;51.460;7.150;2023-05-07T11:29:16;23.60;54.80
2929;DHT22;1474;51.460;7.150;2023-05-07T11:31:42;23.70;52.50
2929;DHT22;1474;51.460;7.150;2023-05-07T11:34:08;23.50;54.60
2929;DHT22;1474;51.460;7.150;2023-05-07T11:36:36;23.50;53.20
2929;DHT22;1474;51.460;7.150;2023-05-07T11:39:30;23.40;53.90
2929;DHT22;1474;51.460;7.150;2023-05-07T11:41:59;23.10;54.80
2929;DHT22;1474;51.460;7.150;2023-05-07T11:44:38;22.90;53.10
2929;DHT22;1474;51.460;7.150;2023-05-07T11:47:08;22.80;54.90
2929;DHT22;1474;51.460;7.150;2023-05-07T11:49:34;22.80;54.00
2929;DHT22;1474;51.460;7.150;2023-05-07T11:52:01;22.70;54.60
2929;DHT22;1474;51.460;7.150;2023-05-07T11:54:35;22.60;54.40
2929;DHT22;1474;51.460;7.150;2023-05-07T11:57:02;22.50;56.00
2929;DHT22;1474;51.460;7.150;2023-05-07T11:59:28;22.60;55.50
2929;DHT22;1474;51.460;7.150;2023-05-07T12:01:57;22.60;55.50
2929;DHT22;1474;51.460;7.150;2023-05-07T12:04:24;22.50;55.60
2929;DHT22;1474;51.460;7.150;2023-05-07T12:06:54;22.40;55.90
2929;DHT22;1474;51.460;7.150;2023-05-07T12:09:21;22.40;55.80
2929;DHT22;1474;51.460;7.150;2023-05-07T12:11:46;22.40;55.20
2929;DHT22;1474;51.460;7.150;2023-05-07T12:14:13;22.60;56.90
2929;DHT22;1474;51.460;7.150;2023-05-07T12:16:41;22.60;56.10
2929;DHT22;1474;51.460;7.150;2023-05-07T12:19:08;22.50;56.00
2929;DHT22;1474;51.460;7.150;2023-05-07T12:21:38;22.40;56.00
2929;DHT22;1474;51.460;7.150;2023-05-07T12:24:05;22.20;58.00
2929;DHT22;1474;51.460;7.150;2023-05-07T12:26:31;22.30;57.20
2929;DHT22;1474;51.460;7.150;2023-05-07T12:28:57;22.40;58.20
2929;DHT22;1474;51.460;7.150;2023-05-07T12:31:26;22.40;55.70
2929;DHT22;1474;51.460;7.150;2023-05-07T12:33:52;22.30;56.00
2929;DHT22;1474;51.460;7.150;2023-05-07T12:36:18;22.20;55.90
2929;DHT22;1474;51.460;7.150;2023-05-07T12:39:33;22.10;57.50
2929;DHT22;1474;51.460;7.150;2023-05-07T12:41:59;22.10;57.50
2929;DHT22;1474;51.460;7.150;2023-05-07T12:44:29;22.10;57.40
2929;DHT22;1474;51.460;7.150;2023-05-07T12:46:56;22.00;57.40
2929;DHT22;1474;51.460;7.150;2023-05-07T12:49:25;21.90;57.40
2929;DHT22;1474;51.460;7.150;2023-05-07T12:51:51;21.90;57.90
2929;DHT22;1474;51.460;7.150;2023-05-07T12:54:37;21.90;59.20
2929;DHT22;1474;51.460;7.150;2023-05-07T12:57:08;22.00;57.50
2929;DHT22;1474;51.460;7.150;2023-05-07T12:59:38;22.00;56.90
2929;DHT22;1474;51.460;7.150;2023-05-07T13:02:05;21.80;56.70
2929;DHT22;1474;51.460;7.150;2023-05-07T13:04:32;21.70;58.20
2929;DHT22;1474;51.460;7.150;2023-05-07T13:06:59;21.70;57.90
2929;DHT22;1474;51.460;7.150;2023-05-07T13:09:25;21.70;57.20
2929;DHT22;1474;51.460;7.150;2023-05-07T13:11:51;21.70;57.50
2929;DHT22;1474;51.460;7.150;2023-05-07T13:14:16;21.70;57.60
2929;DHT22;1474;51.460;7.150;2023-05-07T13:16:43;21.60;57.00
2929;DHT22;1474;51.460;7.150;2023-05-07T13:19:08;21.40;57.60
2929;DHT22;1474;51.460;7.150;2023-05-07T13:21:34;21.40;58.10
2929;DHT22;1474;51.460;7.150;2023-05-07T13:24:00;21.50;58.00
2929;DHT22;1474;51.460;7.150;2023-05-07T13:26:26;21.50;58.60
2929;DHT22;1474;51.460;7.150;2023-05-07T13:28:55;21.50;58.40
2929;DHT22;1474;51.460;7.150;2023-05-07T13:31:20;21.50;58.00
2929;DHT22;1474;51.460;7.150;2023-05-07T13:33:46;21.40;57.40
2929;DHT22;1474;51.460;7.150;2023-05-07T13:36:12;21.20;57.70
2929;DHT22;1474;51.460;7.150;2023-05-07T13:38:41;21.20;58.80
2929;DHT22;1474;51.460;7.150;2023-05-07T13:41:07;21.20;57.80
2929;DHT22;1474;51.460;7.150;2023-05-07T13:43:33;21.10;58.20
2929;DHT22;1474;51.460;7.150;2023-05-07T13:45:59;21.10;59.40
2929;DHT22;1474;51.460;7.150;2023-05-07T13:48:26;21.30;59.10
2929;DHT22;1474;51.460;7.150;2023-05-07T13:50:53;21.30;58.40
2929;DHT22;1474;51.460;7.150;2023-05-07T13:53:19;21.30;58.20
2929;DHT22;1474;51.460;7.150;2023-05-07T13:55:45;21.30;58.10
2929;DHT22;1474;51.460;7.150;2023-05-07T13:58:11;21.20;59.40
2929;DHT22;1474;51.460;7.150;2023-05-07T14:00:37;21.20;59.10
2929;DHT22;1474;51.460;7.150;2023-05-07T14:03:04;21.20;59.90
2929;DHT22;1474;51.460;7.150;2023-05-07T14:05:30;21.20;59.50
2929;DHT22;1474;51.460;7.150;2023-05-07T14:07:59;21.20;59.70
2929;DHT22;1474;51.460;7.150;2023-05-07T14:10:25;21.10;59.80
2929;DHT22;1474;51.460;7.150;2023-05-07T14:12:51;21.10;60.70
2929;DHT22;1474;51.460;7.150;2023-05-07T14:15:17;21.10;60.20
2929;DHT22;1474;51.460;7.150;2023-05-07T14:17:44;21.00;61.90
2929;DHT22;1474;51.460;7.150;2023-05-07T14:20:12;21.00;61.00
2929;DHT22;1474;51.460;7.150;2023-05-07T14:22:38;20.90;61.70
2929;DHT22;1474;51.460;7.150;2023-05-07T14:25:04;20.80;61.90
2929;DHT22;1474;51.460;7.150;2023-05-07T14:27:30;20.80;62.10
2929;DHT22;1474;51.460;7.150;2023-05-07T14:29:56;20.90;62.60
2929;DHT22;1474;51.460;7.150;2023-05-07T14:32:22;20.90;62.80
2929;DHT22;1474;51.460;7.150;2023-05-07T14:34:48;20.90;62.20
2929;DHT22;1474;51.460;7.150;2023-05-07T14:37:13;20.90;62.90
2929;DHT22;1474;51.460;7.150;2023-05-07T14:39:39;20.90;61.60
2929;DHT22;1474;51.460;7.150;2023-05-07T14:42:05;20.80;62.40
2929;DHT22;1474;51.460;7.150;2023-05-07T14:44:36;20.80;62.20
2929;DHT22;1474;51.460;7.150;2023-05-07T14:47:01;20.70;62.60
2929;DHT22;1474;51.460;7.150;2023-05-07T14:49:27;20.70;61.50
2929;DHT22;1474;51.460;7.150;2023-05-07T14:51:53;20.80;62.20
2929;DHT22;1474;51.460;7.150;2023-05-07T14:54:19;20.70;62.30
2929;DHT22;1474;51.460;7.150;2023-05-07T14:56:45;20.70;62.60
2929;DHT22;1474;51.460;7.150;2023-05-07T14:59:11;20.60;61.60
2929;DHT22;1474;51.460;7.150;2023-05-07T15:01:37;20.50;62.70
2929;DHT22;1474;51.460;7.150;2023-05-07T15:04:04;20.50;63.70
2929;DHT22;1474;51.460;7.150;2023-05-07T15:06:30;20.50;63.50
2929;DHT22;1474;51.460;7.150;2023-05-07T15:08:57;20.60;64.50
2929;DHT22;1474;51.460;7.150;2023-05-07T15:11:23;20.80;66.10
2929;DHT22;1474;51.460;7.150;2023-05-07T15:13:49;20.80;64.70
2929;DHT22;1474;51.460;7.150;2023-05-07T15:16:15;20.70;64.30
2929;DHT22;1474;51.460;7.150;2023-05-07T15:18:42;20.70;64.20
2929;DHT22;1474;51.460;7.150;2023-05-07T15:21:08;20.50;65.10
2929;DHT22;1474;51.460;7.150;2023-05-07T15:23:34;20.50;65.30
2929;DHT22;1474;51.460;7.150;2023-05-07T15:26:00;20.50;66.00
2929;DHT22;1474;51.460;7.150;2023-05-07T15:28:27;20.50;64.90
2929;DHT22;1474;51.460;7.150;2023-05-07T15:30:56;20.50;65.60
2929;DHT22;1474;51.460;7.150;2023-05-07T15:33:23;20.50;65.90
2929;DHT22;1474;51.460;7.150;2023-05-07T15:35:49;20.50;66.40
2929;DHT22;1474;51.460;7.150;2023-05-07T15:38:15;20.70;67.50
2929;DHT22;1474;51.460;7.150;2023-05-07T15:40:41;20.80;67.90
2929;DHT22;1474;51.460;7.150;2023-05-07T15:43:08;21.00;68.00
2929;DHT22;1474;51.460;7.150;2023-05-07T15:45:39;21.00;66.70
2929;DHT22;1474;51.460;7.150;2023-05-07T15:48:06;21.10;66.80
2929;DHT22;1474;51.460;7.150;2023-05-07T15:50:33;21.00;66.10
2929;DHT22;1474;51.460;7.150;2023-05-07T15:52:58;21.00;66.60
2929;DHT22;1474;51.460;7.150;2023-05-07T15:55:24;20.90;66.20
2929;DHT22;1474;51.460;7.150;2023-05-07T15:57:51;20.80;63.70
2929;DHT22;1474;51.460;7.150;2023-05-07T16:00:17;20.60;63.00
2929;DHT22;1474;51.460;7.150;2023-05-07T16:02:43;20.50;63.00
2929;DHT22;1474;51.460;7.150;2023-05-07T16:05:09;20.40;63.30
2929;DHT22;1474;51.460;7.150;2023-05-07T16:07:37;20.40;64.20
2929;DHT22;1474;51.460;7.150;2023-05-07T16:10:04;20.40;63.40
2929;DHT22;1474;51.460;7.150;2023-05-07T16:12:30;20.40;64.20
2929;DHT22;1474;51.460;7.150;2023-05-07T16:14:56;20.40;64.30